createdAt,value
2022-12-14T10:27:22.567Z,99676.42
2022-12-14T10:30:04.431Z,99671.09
2022-12-14T10:32:36.097Z,99670.09
2022-12-14T10:35:23.412Z,99673.40
2022-12-14T10:38:00.004Z,99667.42
2022-12-14T10:40:34.139Z,99660.93
2022-12-14T10:43:29.609Z,99658.75
2022-12-14T10:46:24.024Z,99650.28
2022-12-14T10:49:04.887Z,99641.80
2022-12-14T10:51:38.166Z,99642.18
2022-12-14T10:54:16.783Z,99639.91
2022-12-14T10:56:44.305Z,99635.06
2022-12-14T10:59:16.573Z,99627.77
2022-12-14T11:01:48.903Z,99621.02
2022-12-14T11:04:44.684Z,99616.02
2022-12-14T11:07:15.281Z,99609.68
2022-12-14T11:09:42.838Z,99606.83
2022-12-14T11:12:16.799Z,99604.16
2022-12-14T11:15:03.035Z,99600.52
2022-12-14T11:17:38.242Z,99597.63
2022-12-14T11:20:15.626Z,99594.00
2022-12-14T11:22:57.402Z,99583.25
2022-12-14T11:25:29.943Z,99580.58
2022-12-14T11:27:59.307Z,99579.40
2022-12-14T11:30:27.273Z,99572.77
2022-12-14T11:32:54.122Z,99565.43
2022-12-14T11:35:20.958Z,99561.76
2022-12-14T11:37:48.953Z,99559.27
2022-12-14T11:40:26.113Z,99559.58
2022-12-14T11:43:01.342Z,99558.81
2022-12-14T11:45:29.709Z,99544.07
2022-12-14T11:51:11.753Z,99527.52
2022-12-14T11:53:39.371Z,99527.45
2022-12-14T11:56:16.134Z,99524.48
2022-12-14T11:58:48.456Z,99519.36
2022-12-14T12:01:19.035Z,99516.52
2022-12-14T12:03:48.300Z,99513.58
2022-12-14T12:06:24.583Z,99511.31
2022-12-14T12:08:56.888Z,99508.52
2022-12-14T12:11:27.234Z,99505.51
2022-12-14T12:13:59.621Z,99503.64
2022-12-14T12:16:26.859Z,99498.10
2022-12-14T12:19:11.715Z,99487.52
2022-12-14T12:21:42.471Z,99482.02
2022-12-14T12:24:33.881Z,99476.93
2022-12-14T12:27:02.977Z,99464.66
2022-12-14T12:29:55.737Z,99452.67
2022-12-14T12:32:28.353Z,99446.04
2022-12-14T12:35:12.396Z,99437.83
2022-12-14T12:37:46.830Z,99430.86
2022-12-14T12:40:13.376Z,99427.80
2022-12-14T12:42:47.806Z,99424.95
2022-12-14T12:45:25.353Z,99419.80
2022-12-14T12:47:55.700Z,99416.29
2022-12-14T12:50:27.917Z,99409.73
2022-12-14T12:53:04.490Z,99404.81
2022-12-14T12:55:35.991Z,99403.30
2022-12-14T12:58:04.213Z,99401.34
2022-12-14T13:00:31.126Z,99403.52
2022-12-14T13:03:01.668Z,99405.17
2022-12-14T13:05:46.279Z,99404.48
2022-12-14T13:08:22.112Z,99403.70
2022-12-14T13:11:24.538Z,99400.33
2022-12-14T13:13:37.077Z,99399.14
2022-12-14T13:16:26.964Z,99393.40
2022-12-14T13:19:13.377Z,99387.45
2022-12-14T13:21:50.040Z,99380.20
2022-12-14T13:24:19.853Z,99377.16
2022-12-14T13:26:58.767Z,99374.63
2022-12-14T13:29:31.899Z,99370.77
2022-12-14T13:32:03.260Z,99368.98
2022-12-14T13:34:51.912Z,99360.63
2022-12-14T13:37:43.589Z,99361.30
2022-12-14T13:40:16.649Z,99359.35
2022-12-14T13:42:55.495Z,99360.95
2022-12-14T13:45:27.922Z,99361.55
2022-12-14T13:47:55.573Z,99364.56
2022-12-14T13:50:39.829Z,99362.52
2022-12-14T13:53:17.363Z,99365.54
2022-12-14T13:55:55.188Z,99363.92
2022-12-14T13:58:38.606Z,99363.91
2022-12-14T14:01:15.327Z,99356.02
2022-12-14T14:03:44.535Z,99356.76
2022-12-14T14:06:11.101Z,99350.09
2022-12-14T14:08:42.890Z,99346.20
2022-12-14T14:11:38.507Z,99344.70
2022-12-14T14:14:11.647Z,99337.52
2022-12-14T14:16:46.651Z,99329.01
2022-12-14T14:19:22.492Z,99325.03
2022-12-14T14:24:55.687Z,99320.59
2022-12-14T14:27:28.147Z,99319.34
2022-12-14T14:29:55.257Z,99315.96
2022-12-14T14:32:24.528Z,99318.58
2022-12-14T14:34:51.433Z,99318.08
2022-12-14T14:37:20.996Z,99315.13
2022-12-14T14:40:38.352Z,99310.19
2022-12-14T14:43:30.875Z,99305.63
2022-12-14T14:46:03.410Z,99303.70
2022-12-14T14:48:43.952Z,99305.56
2022-12-14T14:51:10.675Z,99311.30
2022-12-14T14:53:38.398Z,99314.40
2022-12-14T14:56:28.876Z,99310.92
2022-12-14T14:59:22.226Z,99318.65
2022-12-14T15:02:02.558Z,99317.04
2022-12-14T15:04:49.412Z,99314.83
2022-12-14T15:07:23.580Z,99308.14
2022-12-14T15:10:22.831Z,99311.48
2022-12-14T15:12:54.979Z,99310.58
2022-12-14T15:15:42.271Z,99307.02
2022-12-14T15:18:18.083Z,99305.21
2022-12-14T15:21:00.151Z,99302.58
2022-12-14T15:23:40.334Z,99297.55
2022-12-14T15:26:26.847Z,99293.39
2022-12-14T15:28:57.965Z,99283.40
2022-12-14T15:31:39.611Z,99276.86
2022-12-14T15:34:07.691Z,99269.39
2022-12-14T15:36:41.507Z,99263.70
2022-12-14T15:39:37.937Z,99253.34
2022-12-14T15:42:16.188Z,99244.42
2022-12-14T15:44:50.577Z,99242.35
2022-12-14T15:47:28.579Z,99245.95
2022-12-14T15:50:13.531Z,99231.48
2022-12-14T15:52:40.604Z,99224.62
2022-12-14T15:55:22.860Z,99224.45
2022-12-14T15:57:49.423Z,99219.76
2022-12-14T16:00:16.365Z,99221.78
2022-12-14T16:02:43.671Z,99225.01
2022-12-14T16:05:18.211Z,99220.63
2022-12-14T16:07:48.144Z,99225.60
2022-12-14T16:10:32.183Z,99230.33
2022-12-14T16:13:29.067Z,99215.90
2022-12-14T16:15:57.140Z,99209.62
2022-12-14T16:18:24.347Z,99209.05
2022-12-14T16:21:00.305Z,99218.05
2022-12-14T16:23:33.351Z,99219.20
2022-12-14T16:26:02.556Z,99207.81
2022-12-14T16:28:39.490Z,99206.73
2022-12-14T16:31:17.101Z,99212.11
2022-12-14T16:33:43.851Z,99211.33
2022-12-14T16:36:23.620Z,99214.45
2022-12-14T16:38:59.283Z,99211.96
2022-12-14T16:41:39.445Z,99207.83
2022-12-14T16:44:20.084Z,99212.52
2022-12-14T16:47:02.899Z,99210.06
2022-12-14T16:50:01.099Z,99208.23
2022-12-14T16:52:33.046Z,99206.61
2022-12-14T16:55:15.227Z,99200.67
2022-12-14T16:57:48.785Z,99201.45
2022-12-14T17:00:20.066Z,99200.86
2022-12-14T17:02:58.084Z,99203.67
2022-12-14T17:05:30.066Z,99198.84
2022-12-14T17:07:58.052Z,99195.33
2022-12-14T17:10:26.482Z,99205.61
2022-12-14T17:13:01.000Z,99210.19
2022-12-14T17:15:30.866Z,99208.55
2022-12-14T17:18:00.635Z,99206.27
2022-12-14T17:20:29.694Z,99207.95
2022-12-14T17:22:58.867Z,99206.05
2022-12-14T17:25:26.959Z,99204.08
2022-12-14T17:27:53.727Z,99203.76
2022-12-14T17:30:27.318Z,99200.10
2022-12-14T17:32:54.831Z,99202.85
2022-12-14T17:35:24.136Z,99204.04
2022-12-14T17:37:51.444Z,99201.28
2022-12-14T17:40:17.975Z,99194.18
2022-12-14T17:42:49.084Z,99191.06
2022-12-14T17:45:25.860Z,99191.23
2022-12-14T17:47:54.011Z,99190.97
2022-12-14T17:50:21.560Z,99190.84
2022-12-14T17:52:50.075Z,99189.12
2022-12-14T17:55:26.556Z,99185.00
2022-12-14T17:57:53.777Z,99179.27
2022-12-14T18:00:41.399Z,99177.42
2022-12-14T18:03:10.403Z,99183.73
2022-12-14T18:05:42.160Z,99185.42
2022-12-14T18:08:11.809Z,99185.80
2022-12-14T18:10:40.942Z,99187.13
2022-12-14T18:13:07.434Z,99181.23
2022-12-14T18:15:39.993Z,99172.13
2022-12-14T18:18:06.969Z,99173.13
2022-12-14T18:20:33.661Z,99175.93
2022-12-14T18:23:01.126Z,99174.61
2022-12-14T18:25:31.075Z,99176.67
2022-12-14T18:27:59.323Z,99181.14
2022-12-14T18:30:26.829Z,99182.31
2022-12-14T18:32:57.688Z,99180.70
2022-12-14T18:35:27.850Z,99180.70
2022-12-14T18:37:55.312Z,99173.70
2022-12-14T18:40:22.893Z,99163.02
2022-12-14T18:42:49.773Z,99166.46
2022-12-14T18:45:21.675Z,99171.77
2022-12-14T18:47:48.490Z,99170.65
2022-12-14T18:50:16.577Z,99170.83
2022-12-14T18:52:44.078Z,99168.98
2022-12-14T18:55:25.637Z,99166.17
2022-12-14T18:57:54.776Z,99174.39
2022-12-14T19:00:23.857Z,99171.50
2022-12-14T19:02:51.875Z,99171.33
2022-12-14T19:05:24.299Z,99162.33
2022-12-14T19:07:54.288Z,99165.33
2022-12-14T19:10:24.435Z,99161.45
2022-12-14T19:12:51.239Z,99156.52
2022-12-14T19:15:26.419Z,99159.21
2022-12-14T19:17:53.852Z,99153.63
2022-12-14T19:20:21.633Z,99155.21
2022-12-14T19:22:49.018Z,99152.40
2022-12-14T19:25:17.436Z,99152.45
2022-12-14T19:28:25.684Z,99151.56
2022-12-14T19:30:34.282Z,99151.68
2022-12-14T19:33:01.452Z,99152.92
2022-12-14T19:35:28.353Z,99148.07
2022-12-14T19:37:55.206Z,99143.20
2022-12-14T19:40:22.058Z,99142.73
2022-12-14T19:42:49.860Z,99140.06
2022-12-14T19:45:17.047Z,99142.83
2022-12-14T19:47:43.864Z,99142.27
2022-12-14T19:50:13.274Z,99138.49
2022-12-14T19:52:40.256Z,99137.64
2022-12-14T19:55:07.306Z,99142.98
2022-12-14T19:57:34.324Z,99148.39
2022-12-14T20:00:02.282Z,99147.23
2022-12-14T20:02:29.194Z,99149.70
2022-12-14T20:04:56.131Z,99146.73
2022-12-14T20:07:23.018Z,99153.27
2022-12-14T20:09:49.828Z,99151.94
2022-12-14T20:12:16.684Z,99155.40
2022-12-14T20:14:43.562Z,99163.16
2022-12-14T20:17:10.875Z,99167.17
2022-12-14T20:19:38.096Z,99165.66
2022-12-14T20:22:07.302Z,99166.50
2022-12-14T20:24:35.666Z,99167.70
2022-12-14T20:27:03.481Z,99169.59
2022-12-14T20:29:33.198Z,99173.23
2022-12-14T20:32:00.214Z,99175.79
2022-12-14T20:34:28.805Z,99171.37
2022-12-14T20:36:55.922Z,99164.64
2022-12-14T20:39:22.723Z,99166.60
2022-12-14T20:41:49.729Z,99169.16
2022-12-14T20:44:16.425Z,99164.10
2022-12-14T20:46:45.265Z,99170.17
2022-12-14T20:49:14.175Z,99170.56
2022-12-14T20:51:42.327Z,99170.52
2022-12-14T20:54:16.748Z,99171.65
2022-12-14T21:03:05.224Z,99164.80
2022-12-14T21:12:42.640Z,99168.77
2022-12-14T21:15:49.468Z,99167.23
2022-12-14T21:19:09.604Z,99165.66
2022-12-14T21:36:21.922Z,99161.56
2022-12-14T21:42:29.179Z,99165.77
2022-12-14T22:51:24.404Z,99186.66
2022-12-14T22:53:51.347Z,99184.41
2022-12-14T22:56:28.900Z,99186.20
2022-12-14T22:59:08.583Z,99184.67
2022-12-14T23:01:36.032Z,99187.37
2022-12-14T23:04:04.706Z,99191.30
2022-12-14T23:06:32.331Z,99191.67
2022-12-14T23:09:18.503Z,99189.86
2022-12-14T23:12:03.661Z,99189.83
2022-12-14T23:14:49.135Z,99193.35
2022-12-14T23:17:34.202Z,99192.25
2022-12-14T23:20:19.859Z,99192.53
2022-12-14T23:23:05.245Z,99194.46
2022-12-14T23:26:06.462Z,99195.04
2022-12-14T23:28:51.594Z,99193.35
2022-12-14T23:31:37.036Z,99186.45
2022-12-14T23:34:22.502Z,99196.11
2022-12-14T23:37:07.878Z,99198.69
2022-12-14T23:39:54.005Z,99196.17
2022-12-14T23:42:39.591Z,99201.10
2022-12-14T23:45:25.163Z,99210.17
2022-12-14T23:48:14.702Z,99213.55
2022-12-14T23:51:00.055Z,99217.52
2022-12-14T23:53:45.272Z,99214.42
2022-12-14T23:56:35.278Z,99217.17
2022-12-14T23:59:22.656Z,99215.85
